Welcome to the New NWS' Forecast!
Most changes are behind the scenes, but click here for differences you might notice.
Latest weather observations around

PATTYMOCUS (PMCC1)

Using English Units (Switch to International System of Units)
Date/ Time (PST) Wind (mph) Vis. (mi) Weather Sky Cond. Temp (°F) Rel. Humidity Wind Chill (°F) Heat Index (°F) Pressure Precip. (in)
Air Dwpt 6 hour Altimeter (inHg) Sea level (inHg) 1 hr 3 hr 6 hr
Max Min
Jan 21 07:35 WNW 2   Clear   34 25     68%              
Jan 21 06:35 ENE 2   Clear   33 22     63%              
Jan 21 05:35 W 1   Clear   34 22     60%              
Jan 21 04:35 WSW 2   Clear   34 22     60%              
Jan 21 03:35 ENE 3   Clear   35 23     61% 33            
Jan 21 02:35 SSE 2   Clear   36 20     52%              
Jan 21 01:35 ESE 1   Clear   36 18     47%              
Jan 21 00:35 W 1   Clear   35 16     46%              
Jan 20 23:35 W 1   Clear   35 20     53%              
Jan 20 22:35 W 3   Clear   36 19     49% 34            
Jan 20 21:35 W 3   Clear   35 21     57% 33            
Jan 20 20:35 W 5   Clear   34 22     60% 29            
Jan 20 19:35 W 3   Clear   34 24     66% 32            
Jan 20 18:35 WSW 5   Clear   34 25     69% 29            
Jan 20 17:35 WSW 5   Clear   35 26     69% 31            
Jan 20 16:35 WSW 3   Clear   39 26     59% 37            
Jan 20 15:35 WSW 3   Clear   44 27     50% 43            
Jan 20 14:35 W 4   Clear   46 28     49% 44            
Jan 20 13:35 W 7   Clear   43 25     49% 39            
Jan 20 12:35 SW 3   Clear   46 26     45% 45            
Jan 20 11:35 WSW 3   Clear   43 27     52% 42            
Jan 20 10:35 WSW 4   Clear   41 26     55% 38            
Jan 20 09:35 W 3   Clear   39 26     59% 37            
Jan 20 08:35 WSW 4   Clear   33 24     70% 29            
Jan 20 07:35 W 3   Clear   30 23     76% 27            
Jan 20 06:35 W 3   Clear   30 24     77% 27            
Jan 20 05:35 WSW 3   Clear   29 24     81% 26            
Jan 20 04:35 W 2   Clear   29 24     83%              
Jan 20 03:35 WSW 3   Clear   29 24     80% 26            
Jan 20 02:35 WNW 4   Clear   30 23     76% 26            
Jan 20 01:35 W 4   Clear   29 24     80% 25            
Jan 20 00:35 W 3   Clear   30 24     79% 27            
Jan 19 23:35 W 4   Clear   30 24     78% 26            
Jan 19 22:35 WNW 5   Clear   30 23     76% 25            
Jan 19 21:35 W 4   Clear   30 24     79% 26            
Jan 19 20:35 W 3   Clear   30 26     86% 27            
Jan 19 19:35 W 3   Clear   31 26     81% 28            
Jan 19 18:35 W 3   Clear   32 27     81% 29            
Jan 19 17:35 WNW 4   Clear   33 28     83% 29            
Jan 19 16:35 WNW 5   Clear   37 29     74% 33            
Jan 19 15:35 NW 4   Clear   37 29     72% 34            
Jan 19 14:35 W 2   Clear   39 27     62%              
Jan 19 13:35 NW 3   Clear   43 29     57% 42            
Jan 19 12:35 SE 2   Clear   43 31     62%              
Jan 19 11:35 SSE 1   Clear   40 32     72%              
Jan 19 10:35 SE 2   Clear   37 30     77%              
Jan 19 09:35 ENE 2   Clear   40 31     70%              
Jan 19 08:35 W 1   Clear   34 29     81%              
Jan 19 07:35 NNW 2   Clear   32 25     76%              
Jan 19 06:35 S 2   Clear   32 25     75%              
Jan 19 05:35 SSW 3   Clear   31 26     82% 28            
Jan 19 04:35 SW 9   Clear   32 25     74% 24            
Jan 19 03:35 W 4   Clear   32 27     80% 28            
Jan 19 02:35 NNE 2   Clear   32 29     90%              
Jan 19 01:35 NW 3   Clear   32 30     94% 29            
Jan 19 00:35 NW 3   Clear   33 30     88% 30            
Jan 18 23:35 NNW 2   Clear   33 30     87%              
Jan 18 22:35 WNW 5   Clear   33 28     80% 28            
Jan 18 21:35 WNW 4   Clear   33 29     84% 29            
Jan 18 20:35 ENE 3   Clear   34 31     89% 32            
Jan 18 19:35 ENE 2   Clear   35 32     90%              
Jan 18 18:35 N 2   Clear   36 34     91%              
Jan 18 17:35 SSW 3   Clear   38 35     88% 36            
Jan 18 16:35 SW 4   Clear   40 35     81% 37            
Jan 18 15:35 SW 8   Clear   42 34     73% 37            
Jan 18 14:35 SW 4   Clear   43 38     82% 41            
Jan 18 13:35 SW 11   Clear   40 38     91% 33            
Jan 18 12:35 SW 7   Clear   41 39     94% 36            
Jan 18 11:35 WNW 1   Clear   42 41     97%              
Jan 18 10:35 WSW 2   Clear   43 42     97%              
Jan 18 09:35 W 1   Clear   43 43     100%              
Jan 18 08:35 Calm   Clear   43 43     100%